KMKE/MKE METAR and TAF weather

Enter ICAO airport designator
Station Type Date Time Source
KMKE METAR 2018/12/11 19:52 UTC NOAA

KMKE 111952Z 06009KT 5SM HZ FEW008 BKN250 M02/M06 A3002 RMK AO2 SLP174 T10171061


Station Type Date Time Source
KMKE Decoded METAR 2018/12/11 19:52 UTC NOAA

GEN MITCHELL INTERNATIONAL AIRPORT, WI, United States (KMKE) 42-57N 87-54W 206M
Dec 11, 2018 - 02:52 PM EST / 2018.12.11 1952 UTC
Wind: from the ENE (060 degrees) at 10 MPH (9 KT):0
Visibility: 5 mile(s):0
Sky conditions: mostly cloudy
Weather: haze
Temperature: 28.9 F (-1.7 C)
Windchill: 19 F (-7 C):1
Dew Point: 21.0 F (-6.1 C)
Relative Humidity: 71%
Pressure (altimeter): 30.02 in. Hg (1016 hPa)
ob: KMKE 111952Z 06009KT 5SM HZ FEW008 BKN250 M02/M06 A3002 RMK AO2 SLP174 T10171061
cycle: 20

Station Type Date Time Source
KMKE TAF 2018/12/11 18:22 UTC NOAA

TAF KMKE 111720Z 1118/1224 00000KT P6SM BKN150
FM121000 13010KT P6SM OVC060
FM121200 14010G15KT 5SM -SNRA BR OVC012
FM121500 15011G17KT 2SM -SN BR OVC006
FM121700 17009G15KT 2SM -SNRA BR OVC008
FM121900 21008KT 3SM BR OVC009
FM122100 25007KT P6SM OVC010


Example: see airport list